<?xml version="1.0" encoding="UTF-8" standalone="no" ?><gpx xmlns="http://www.topografix.com/GPX/1/1" xmlns:gpxx="http://www.garmin.com/xmlschemas/GpxExtensions/v3" xmlns:wptx1="http://www.garmin.com/xmlschemas/WaypointExtension/v1" xmlns:gpxtpx="http://www.garmin.com/xmlschemas/TrackPointExtension/v1" creator="GuideVTT.com" version="1.1" xmlns:xsi="http://www.w3.org/2001/XMLSchema-instance" xsi:schemaLocation="http://www.topografix.com/GPX/1/1 http://www.topografix.com/GPX/1/1/gpx.xsd http://www.garmin.com/xmlschemas/GpxExtensions/v3 http://www8.garmin.com/xmlschemas/GpxExtensionsv3.xsd http://www.garmin.com/xmlschemas/WaypointExtension/v1 http://www8.garmin.com/xmlschemas/WaypointExtensionv1.xsd http://www.garmin.com/xmlschemas/TrackPointExtension/v1 http://www.garmin.com/xmlschemas/TrackPointExtensionv1.xsd">
<metadata><link href="http://www.garmin.com"><text>Garmin International</text></link><time>2013-06-22T15:13:50Z</time></metadata>
<trk><name>ne_tn_747.gpx</name><extensions><gpxx:TrackExtension><gpxx:DisplayColor>Cyan</gpxx:DisplayColor></gpxx:TrackExtension></extensions><trkseg>
<trkpt lat="47.04810210" lon="6.87452348"><ele></ele><time>2014-6-14T5:9:31Z</time></trkpt>
<trkpt lat="47.04901387" lon="6.87518507"><ele></ele><time>2014-6-14T5:9:34Z</time></trkpt>
<trkpt lat="47.04955420" lon="6.87531100"><ele></ele><time>2014-6-14T5:9:37Z</time></trkpt>
<trkpt lat="47.04990306" lon="6.87491252"><ele></ele><time>2014-6-14T5:9:40Z</time></trkpt>
<trkpt lat="47.04968557" lon="6.87458579"><ele></ele><time>2014-6-14T5:9:43Z</time></trkpt>
<trkpt lat="47.04967101" lon="6.87345414"><ele></ele><time>2014-6-14T5:9:46Z</time></trkpt>
<trkpt lat="47.04954444" lon="6.87332386"><ele></ele><time>2014-6-14T5:9:49Z</time></trkpt>
<trkpt lat="47.04944833" lon="6.87207463"><ele></ele><time>2014-6-14T5:9:52Z</time></trkpt>
<trkpt lat="47.04943355" lon="6.87090350"><ele></ele><time>2014-6-14T5:9:55Z</time></trkpt>
<trkpt lat="47.04974413" lon="6.87004478"><ele></ele><time>2014-6-14T5:9:58Z</time></trkpt>
<trkpt lat="47.04910438" lon="6.86801169"><ele></ele><time>2014-6-14T5:10:1Z</time></trkpt>
<trkpt lat="47.04861408" lon="6.86709569"><ele></ele><time>2014-6-14T5:10:4Z</time></trkpt>
<trkpt lat="47.04797053" lon="6.86611553"><ele></ele><time>2014-6-14T5:10:7Z</time></trkpt>
<trkpt lat="47.04747923" lon="6.86500217"><ele></ele><time>2014-6-14T5:10:10Z</time></trkpt>
<trkpt lat="47.04643653" lon="6.86335519"><ele></ele><time>2014-6-14T5:10:13Z</time></trkpt>
<trkpt lat="47.04760652" lon="6.86347424"><ele></ele><time>2014-6-14T5:10:16Z</time></trkpt>
<trkpt lat="47.04917135" lon="6.86340482"><ele></ele><time>2014-6-14T5:10:19Z</time></trkpt>
<trkpt lat="47.05070270" lon="6.86383587"><ele></ele><time>2014-6-14T5:10:22Z</time></trkpt>
<trkpt lat="47.05219946" lon="6.86454370"><ele></ele><time>2014-6-14T5:10:25Z</time></trkpt>
<trkpt lat="47.05337608" lon="6.86599203"><ele></ele><time>2014-6-14T5:10:28Z</time></trkpt>
<trkpt lat="47.05486703" lon="6.86734494"><ele></ele><time>2014-6-14T5:10:31Z</time></trkpt>
<trkpt lat="47.05595432" lon="6.86892598"><ele></ele><time>2014-6-14T5:10:34Z</time></trkpt>
<trkpt lat="47.05689369" lon="6.86970574"><ele></ele><time>2014-6-14T5:10:37Z</time></trkpt>
<trkpt lat="47.05770420" lon="6.86989458"><ele></ele><time>2014-6-14T5:10:40Z</time></trkpt>
<trkpt lat="47.05788207" lon="6.86948465"><ele></ele><time>2014-6-14T5:10:43Z</time></trkpt>
<trkpt lat="47.05757371" lon="6.86897459"><ele></ele><time>2014-6-14T5:10:46Z</time></trkpt>
<trkpt lat="47.05725628" lon="6.86845146"><ele></ele><time>2014-6-14T5:10:49Z</time></trkpt>
<trkpt lat="47.05634322" lon="6.86753982"><ele></ele><time>2014-6-14T5:10:52Z</time></trkpt>
<trkpt lat="47.05598915" lon="6.86688548"><ele></ele><time>2014-6-14T5:10:55Z</time></trkpt>
<trkpt lat="47.05530096" lon="6.86597148"><ele></ele><time>2014-6-14T5:10:58Z</time></trkpt>
<trkpt lat="47.05494557" lon="6.86505394"><ele></ele><time>2014-6-14T5:11:1Z</time></trkpt>
<trkpt lat="47.05480703" lon="6.86433152"><ele></ele><time>2014-6-14T5:11:4Z</time></trkpt>
<trkpt lat="47.05421874" lon="6.86361393"><ele></ele><time>2014-6-14T5:11:7Z</time></trkpt>
<trkpt lat="47.05376538" lon="6.86289490"><ele></ele><time>2014-6-14T5:11:10Z</time></trkpt>
<trkpt lat="47.05312444" lon="6.86244113"><ele></ele><time>2014-6-14T5:11:13Z</time></trkpt>
<trkpt lat="47.05267206" lon="6.86191954"><ele></ele><time>2014-6-14T5:11:16Z</time></trkpt>
<trkpt lat="47.05132886" lon="6.86134174"><ele></ele><time>2014-6-14T5:11:19Z</time></trkpt>
<trkpt lat="47.05046304" lon="6.86089043"><ele></ele><time>2014-6-14T5:11:22Z</time></trkpt>
<trkpt lat="47.05019114" lon="6.86048537"><ele></ele><time>2014-6-14T5:11:25Z</time></trkpt>
<trkpt lat="47.04934437" lon="6.86024445"><ele></ele><time>2014-6-14T5:11:28Z</time></trkpt>
<trkpt lat="47.04866678" lon="6.85965954"><ele></ele><time>2014-6-14T5:11:31Z</time></trkpt>
<trkpt lat="47.04812510" lon="6.85927058"><ele></ele><time>2014-6-14T5:11:34Z</time></trkpt>
<trkpt lat="47.04749414" lon="6.85901420"><ele></ele><time>2014-6-14T5:11:37Z</time></trkpt>
<trkpt lat="47.04726727" lon="6.85862185"><ele></ele><time>2014-6-14T5:11:40Z</time></trkpt>
<trkpt lat="47.04564888" lon="6.85877094"><ele></ele><time>2014-6-14T5:11:43Z</time></trkpt>
<trkpt lat="47.04608157" lon="6.85717394"><ele></ele><time>2014-6-14T5:11:46Z</time></trkpt>
<trkpt lat="47.04554861" lon="6.85673229"><ele></ele><time>2014-6-14T5:11:49Z</time></trkpt>
<trkpt lat="47.04504357" lon="6.85647458"><ele></ele><time>2014-6-14T5:11:52Z</time></trkpt>
<trkpt lat="47.04455478" lon="6.85587456"><ele></ele><time>2014-6-14T5:11:55Z</time></trkpt>
<trkpt lat="47.04396851" lon="6.85556510"><ele></ele><time>2014-6-14T5:11:58Z</time></trkpt>
<trkpt lat="47.04405679" lon="6.85523516"><ele></ele><time>2014-6-14T5:12:1Z</time></trkpt>
<trkpt lat="47.04463239" lon="6.85521575"><ele></ele><time>2014-6-14T5:12:4Z</time></trkpt>
<trkpt lat="47.04557450" lon="6.85474492"><ele></ele><time>2014-6-14T5:12:7Z</time></trkpt>
<trkpt lat="47.04656266" lon="6.85448412"><ele></ele><time>2014-6-14T5:12:10Z</time></trkpt>
<trkpt lat="47.04782193" lon="6.85447041"><ele></ele><time>2014-6-14T5:12:13Z</time></trkpt>
<trkpt lat="47.04904622" lon="6.85465449"><ele></ele><time>2014-6-14T5:12:16Z</time></trkpt>
<trkpt lat="47.04962256" lon="6.85477982"><ele></ele><time>2014-6-14T5:12:19Z</time></trkpt>
<trkpt lat="47.04890527" lon="6.85347159"><ele></ele><time>2014-6-14T5:12:22Z</time></trkpt>
<trkpt lat="47.04867671" lon="6.85275026"><ele></ele><time>2014-6-14T5:12:25Z</time></trkpt>
<trkpt lat="47.04898810" lon="6.85207568"><ele></ele><time>2014-6-14T5:12:28Z</time></trkpt>
<trkpt lat="47.04920135" lon="6.85156009"><ele></ele><time>2014-6-14T5:12:31Z</time></trkpt>
<trkpt lat="47.04883307" lon="6.84990591"><ele></ele><time>2014-6-14T5:12:34Z</time></trkpt>
<trkpt lat="47.04829732" lon="6.84892477"><ele></ele><time>2014-6-14T5:12:37Z</time></trkpt>
<trkpt lat="47.04779692" lon="6.84782482"><ele></ele><time>2014-6-14T5:12:40Z</time></trkpt>
<trkpt lat="47.04689399" lon="6.84716361"><ele></ele><time>2014-6-14T5:12:43Z</time></trkpt>
<trkpt lat="47.04675540" lon="6.84645451"><ele></ele><time>2014-6-14T5:12:46Z</time></trkpt>
<trkpt lat="47.04611365" lon="6.84585624"><ele></ele><time>2014-6-14T5:12:49Z</time></trkpt>
<trkpt lat="47.04557895" lon="6.84508573"><ele></ele><time>2014-6-14T5:12:52Z</time></trkpt>
<trkpt lat="47.04516138" lon="6.84435342"><ele></ele><time>2014-6-14T5:12:55Z</time></trkpt>
<trkpt lat="47.04466435" lon="6.84391151"><ele></ele><time>2014-6-14T5:12:58Z</time></trkpt>
<trkpt lat="47.04443402" lon="6.84286132"><ele></ele><time>2014-6-14T5:13:1Z</time></trkpt>
<trkpt lat="47.04411374" lon="6.84181214"><ele></ele><time>2014-6-14T5:13:4Z</time></trkpt>
<trkpt lat="47.04375876" lon="6.84101338"><ele></ele><time>2014-6-14T5:13:7Z</time></trkpt>
<trkpt lat="47.04325129" lon="6.84029528"><ele></ele><time>2014-6-14T5:13:10Z</time></trkpt>
<trkpt lat="47.04266361" lon="6.83972285"><ele></ele><time>2014-6-14T5:13:13Z</time></trkpt>
<trkpt lat="47.04194959" lon="6.83907288"><ele></ele><time>2014-6-14T5:13:16Z</time></trkpt>
<trkpt lat="47.04162227" lon="6.83840545"><ele></ele><time>2014-6-14T5:13:19Z</time></trkpt>
<trkpt lat="47.04167383" lon="6.83794432"><ele></ele><time>2014-6-14T5:13:22Z</time></trkpt>
<trkpt lat="47.04220356" lon="6.83775417"><ele></ele><time>2014-6-14T5:13:25Z</time></trkpt>
<trkpt lat="47.04292245" lon="6.83761453"><ele></ele><time>2014-6-14T5:13:28Z</time></trkpt>
<trkpt lat="47.04360571" lon="6.83754108"><ele></ele><time>2014-6-14T5:13:31Z</time></trkpt>
<trkpt lat="47.04450484" lon="6.83746521"><ele></ele><time>2014-6-14T5:13:34Z</time></trkpt>
<trkpt lat="47.04522546" lon="6.83765452"><ele></ele><time>2014-6-14T5:13:37Z</time></trkpt>
<trkpt lat="47.04562433" lon="6.83824224"><ele></ele><time>2014-6-14T5:13:40Z</time></trkpt>
<trkpt lat="47.04648323" lon="6.83907485"><ele></ele><time>2014-6-14T5:13:43Z</time></trkpt>
<trkpt lat="47.04725438" lon="6.84032960"><ele></ele><time>2014-6-14T5:13:46Z</time></trkpt>
<trkpt lat="47.04816344" lon="6.84216189"><ele></ele><time>2014-6-14T5:13:49Z</time></trkpt>
<trkpt lat="47.04921359" lon="6.84345310"><ele></ele><time>2014-6-14T5:13:52Z</time></trkpt>
<trkpt lat="47.05042332" lon="6.84429513"><ele></ele><time>2014-6-14T5:13:55Z</time></trkpt>
<trkpt lat="47.05137254" lon="6.84520588"><ele></ele><time>2014-6-14T5:13:58Z</time></trkpt>
<trkpt lat="47.05255839" lon="6.84665367"><ele></ele><time>2014-6-14T5:14:1Z</time></trkpt>
<trkpt lat="47.05346560" lon="6.84814407"><ele></ele><time>2014-6-14T5:14:4Z</time></trkpt>
<trkpt lat="47.05427363" lon="6.84959612"><ele></ele><time>2014-6-14T5:14:7Z</time></trkpt>
<trkpt lat="47.05509957" lon="6.85103487"><ele></ele><time>2014-6-14T5:14:10Z</time></trkpt>
<trkpt lat="47.05568297" lon="6.85254211"><ele></ele><time>2014-6-14T5:14:13Z</time></trkpt>
<trkpt lat="47.05601450" lon="6.85405213"><ele></ele><time>2014-6-14T5:14:16Z</time></trkpt>
<trkpt lat="47.05606483" lon="6.85510456"><ele></ele><time>2014-6-14T5:14:19Z</time></trkpt>
<trkpt lat="47.05561077" lon="6.85603084"><ele></ele><time>2014-6-14T5:14:22Z</time></trkpt>
<trkpt lat="47.05535419" lon="6.85687599"><ele></ele><time>2014-6-14T5:14:25Z</time></trkpt>
<trkpt lat="47.05481817" lon="6.85760571"><ele></ele><time>2014-6-14T5:14:28Z</time></trkpt>
<trkpt lat="47.05418087" lon="6.85787584"><ele></ele><time>2014-6-14T5:14:31Z</time></trkpt>
<trkpt lat="47.05441773" lon="6.85846556"><ele></ele><time>2014-6-14T5:14:34Z</time></trkpt>
<trkpt lat="47.05486920" lon="6.85880288"><ele></ele><time>2014-6-14T5:14:37Z</time></trkpt>
<trkpt lat="47.05482655" lon="6.85926401"><ele></ele><time>2014-6-14T5:14:40Z</time></trkpt>
<trkpt lat="47.05432251" lon="6.85920364"><ele></ele><time>2014-6-14T5:14:43Z</time></trkpt>
<trkpt lat="47.05410889" lon="6.85965345"><ele></ele><time>2014-6-14T5:14:46Z</time></trkpt>
<trkpt lat="47.05370386" lon="6.85960517"><ele></ele><time>2014-6-14T5:14:49Z</time></trkpt>
<trkpt lat="47.05324314" lon="6.85921530"><ele></ele><time>2014-6-14T5:14:52Z</time></trkpt>
<trkpt lat="47.05261211" lon="6.85894573"><ele></ele><time>2014-6-14T5:14:55Z</time></trkpt>
<trkpt lat="47.05225371" lon="6.85922599"><ele></ele><time>2014-6-14T5:14:58Z</time></trkpt>
<trkpt lat="47.05149848" lon="6.85929995"><ele></ele><time>2014-6-14T5:15:1Z</time></trkpt>
<trkpt lat="47.05054404" lon="6.85911285"><ele></ele><time>2014-6-14T5:15:4Z</time></trkpt>
<trkpt lat="47.04964389" lon="6.85899097"><ele></ele><time>2014-6-14T5:15:7Z</time></trkpt>
<trkpt lat="47.04870777" lon="6.85886948"><ele></ele><time>2014-6-14T5:15:10Z</time></trkpt>
<trkpt lat="47.04793349" lon="6.85873309"><ele></ele><time>2014-6-14T5:15:13Z</time></trkpt>
<trkpt lat="47.04726727" lon="6.85862185"><ele></ele><time>2014-6-14T5:15:16Z</time></trkpt>
<trkpt lat="47.04564914" lon="6.85882358"><ele></ele><time>2014-6-14T5:15:19Z</time></trkpt>
<trkpt lat="47.04519240" lon="6.85922330"><ele></ele><time>2014-6-14T5:15:22Z</time></trkpt>
<trkpt lat="47.04484532" lon="6.85996397"><ele></ele><time>2014-6-14T5:15:25Z</time></trkpt>
<trkpt lat="47.04534500" lon="6.86094554"><ele></ele><time>2014-6-14T5:15:28Z</time></trkpt>
<trkpt lat="47.04552953" lon="6.86186473"><ele></ele><time>2014-6-14T5:15:31Z</time></trkpt>
<trkpt lat="47.04602788" lon="6.86258315"><ele></ele><time>2014-6-14T5:15:34Z</time></trkpt>
<trkpt lat="47.04643653" lon="6.86335519"><ele></ele><time>2014-6-14T5:15:37Z</time></trkpt>
<trkpt lat="47.04747923" lon="6.86500217"><ele></ele><time>2014-6-14T5:15:40Z</time></trkpt>
<trkpt lat="47.04797053" lon="6.86611553"><ele></ele><time>2014-6-14T5:15:43Z</time></trkpt>
<trkpt lat="47.04861408" lon="6.86709569"><ele></ele><time>2014-6-14T5:15:46Z</time></trkpt>
<trkpt lat="47.04910438" lon="6.86801169"><ele></ele><time>2014-6-14T5:15:49Z</time></trkpt>
<trkpt lat="47.04974413" lon="6.87004478"><ele></ele><time>2014-6-14T5:15:52Z</time></trkpt>
<trkpt lat="47.04943355" lon="6.87090350"><ele></ele><time>2014-6-14T5:15:55Z</time></trkpt>
<trkpt lat="47.04944833" lon="6.87207463"><ele></ele><time>2014-6-14T5:15:58Z</time></trkpt>
<trkpt lat="47.04954444" lon="6.87332386"><ele></ele><time>2014-6-14T5:16:1Z</time></trkpt>
<trkpt lat="47.04967101" lon="6.87345414"><ele></ele><time>2014-6-14T5:16:4Z</time></trkpt>
<trkpt lat="47.04968557" lon="6.87458579"><ele></ele><time>2014-6-14T5:16:7Z</time></trkpt>
<trkpt lat="47.04990306" lon="6.87491252"><ele></ele><time>2014-6-14T5:16:10Z</time></trkpt>
<trkpt lat="47.04955420" lon="6.87531100"><ele></ele><time>2014-6-14T5:16:13Z</time></trkpt>
<trkpt lat="47.04901387" lon="6.87518507"><ele></ele><time>2014-6-14T5:16:16Z</time></trkpt>
<trkpt lat="47.04810210" lon="6.87452348"><ele></ele><time>2014-6-14T5:16:19Z</time></trkpt>
</trkseg></trk></gpx>